createdAt,value
2022-12-13T00:01:47.951Z,32.95
2022-12-13T00:04:16.461Z,30.75
2022-12-13T00:06:45.025Z,36.60
2022-12-13T00:09:16.778Z,31.93
2022-12-13T00:11:46.031Z,33.10
2022-12-13T00:14:15.038Z,27.85
2022-12-13T00:16:47.079Z,33.75
2022-12-13T00:19:16.810Z,30.98
2022-12-13T00:21:45.404Z,30.35
2022-12-13T00:24:16.101Z,33.72
2022-12-13T00:26:44.343Z,32.08
2022-12-13T00:29:13.045Z,31.27
2022-12-13T00:32:00.425Z,31.63
2022-12-13T00:34:30.131Z,32.58
2022-12-13T00:37:00.161Z,34.22
2022-12-13T00:39:31.455Z,36.25
2022-12-13T00:41:59.673Z,31.42
2022-12-13T00:44:27.925Z,30.20
2022-12-13T00:46:56.557Z,38.58
2022-12-13T00:49:25.200Z,31.33
2022-12-13T00:51:53.471Z,34.88
2022-12-13T00:54:21.726Z,26.67
2022-12-13T00:56:52.395Z,30.80
2022-12-13T00:59:21.369Z,29.55
2022-12-13T01:01:49.859Z,29.87
2022-12-13T01:04:19.858Z,29.40
2022-12-13T01:06:51.424Z,32.33
2022-12-13T01:09:27.183Z,30.70
2022-12-13T01:11:59.930Z,36.95
2022-12-13T01:14:29.300Z,31.85
2022-12-13T01:16:57.865Z,33.45
2022-12-13T01:19:27.590Z,30.70
2022-12-13T01:21:55.937Z,32.95
2022-12-13T01:24:24.842Z,29.20
2022-12-13T01:26:57.001Z,34.88
2022-12-13T01:29:27.829Z,30.13
2022-12-13T01:31:56.052Z,28.27
2022-12-13T01:34:26.603Z,33.92
2022-12-13T01:36:58.271Z,31.83
2022-12-13T01:39:28.227Z,26.35
2022-12-13T01:41:59.856Z,31.38
2022-12-13T01:45:02.930Z,26.00
2022-12-13T01:47:36.259Z,29.40
2022-12-13T01:50:09.845Z,26.13
2022-12-13T01:52:38.738Z,30.17
2022-12-13T01:55:09.333Z,32.45
2022-12-13T01:57:45.434Z,31.33
2022-12-13T02:00:17.446Z,29.40
2022-12-13T02:02:46.785Z,31.08
2022-12-13T02:05:22.445Z,30.00
2022-12-13T02:07:51.686Z,29.02
2022-12-13T02:10:20.221Z,24.45
2022-12-13T02:12:48.512Z,34.75
2022-12-13T02:15:19.982Z,31.30
2022-12-13T02:18:18.246Z,30.65
2022-12-13T02:21:17.605Z,28.25
2022-12-13T02:24:34.361Z,29.93
2022-12-13T02:27:10.541Z,33.00
2022-12-13T02:30:16.936Z,31.05
2022-12-13T02:33:07.718Z,36.10
2022-12-13T02:35:43.504Z,30.67
2022-12-13T02:38:21.468Z,32.63
2022-12-13T02:41:00.779Z,32.53
2022-12-13T02:43:33.726Z,29.25
2022-12-13T02:46:05.189Z,31.45
2022-12-13T02:48:39.194Z,30.63
2022-12-13T02:51:10.261Z,31.80
2022-12-13T02:53:41.165Z,32.33
2022-12-13T02:56:09.428Z,26.88
2022-12-13T02:58:41.830Z,31.85
2022-12-13T03:01:32.346Z,29.55
2022-12-13T03:04:20.053Z,28.40
2022-12-13T03:06:57.337Z,28.95
2022-12-13T03:09:49.444Z,25.92
2022-12-13T03:12:45.061Z,25.25
2022-12-13T03:15:19.957Z,22.93
2022-12-13T03:17:53.770Z,26.02
2022-12-13T03:20:27.915Z,31.17
2022-12-13T03:22:57.233Z,29.55
2022-12-13T03:25:32.795Z,28.15
2022-12-13T03:28:02.483Z,28.50
2022-12-13T03:30:31.892Z,23.55
2022-12-13T03:33:00.183Z,26.35
2022-12-13T03:35:34.945Z,19.53
2022-12-13T03:38:22.843Z,25.40
2022-12-13T03:40:54.813Z,25.77
2022-12-13T03:43:23.827Z,25.70
2022-12-13T03:45:52.963Z,24.97
2022-12-13T03:48:22.183Z,24.02
2022-12-13T03:50:54.372Z,28.85
2022-12-13T03:53:33.035Z,25.35
2022-12-13T03:56:07.186Z,28.65
2022-12-13T03:58:38.126Z,27.42
2022-12-13T04:01:08.141Z,27.67
2022-12-13T04:03:37.049Z,25.33
2022-12-13T04:06:07.403Z,30.13
2022-12-13T04:08:36.276Z,26.00
2022-12-13T04:11:25.846Z,24.17
2022-12-13T04:13:53.879Z,29.92
2022-12-13T04:16:23.335Z,28.50
2022-12-13T04:18:51.902Z,29.00
2022-12-13T04:21:21.523Z,24.10
2022-12-13T04:23:49.788Z,26.95
2022-12-13T04:26:17.982Z,26.00
2022-12-13T04:28:50.898Z,28.77
2022-12-13T04:31:22.487Z,28.38
2022-12-13T04:33:50.714Z,29.42
2022-12-13T04:36:31.414Z,27.58
2022-12-13T04:39:22.070Z,25.55
2022-12-13T04:41:52.836Z,29.60
2022-12-13T04:44:27.846Z,29.15
2022-12-13T04:47:01.084Z,29.80
2022-12-13T04:49:30.162Z,30.38
2022-12-13T04:52:01.401Z,26.83
2022-12-13T04:54:36.467Z,34.10
2022-12-13T04:57:07.674Z,26.75
2022-12-13T04:59:35.976Z,31.35
2022-12-13T05:02:05.776Z,30.35
2022-12-13T05:04:34.413Z,27.15
2022-12-13T05:07:02.944Z,28.67
2022-12-13T05:09:32.789Z,32.28
2022-12-13T05:12:02.041Z,30.17
2022-12-13T05:14:31.025Z,29.30
2022-12-13T05:16:59.251Z,31.23
2022-12-13T05:19:31.209Z,31.55
2022-12-13T05:22:01.476Z,38.10
2022-12-13T05:24:32.771Z,29.48
2022-12-13T05:27:01.151Z,30.20
2022-12-13T05:29:29.834Z,28.55
2022-12-13T05:31:58.251Z,27.52
2022-12-13T05:34:27.103Z,27.63
2022-12-13T05:36:55.358Z,31.38
2022-12-13T05:39:29.021Z,29.63
2022-12-13T05:42:01.379Z,27.73
2022-12-13T05:44:31.717Z,28.10
2022-12-13T05:47:02.188Z,26.77
2022-12-13T05:49:32.198Z,29.55
2022-12-13T05:52:00.637Z,26.80
2022-12-13T05:54:28.959Z,29.83
2022-12-13T05:56:58.898Z,27.33
2022-12-13T05:59:27.125Z,31.45
2022-12-13T06:01:55.411Z,29.90
2022-12-13T06:04:24.504Z,27.63
2022-12-13T06:06:53.251Z,27.77
2022-12-13T06:09:22.062Z,31.02
2022-12-13T06:11:50.935Z,27.27
2022-12-13T06:14:22.469Z,29.77
2022-12-13T06:16:53.042Z,28.63
2022-12-13T06:19:21.831Z,27.83
2022-12-13T06:21:50.365Z,28.30
2022-12-13T06:24:20.827Z,27.67
2022-12-13T06:26:49.902Z,26.10
2022-12-13T06:29:23.130Z,25.57
2022-12-13T06:32:01.685Z,26.35
2022-12-13T06:34:33.354Z,24.30
2022-12-13T06:37:03.147Z,22.33
2022-12-13T06:39:32.532Z,23.13
2022-12-13T06:42:03.088Z,25.23
2022-12-13T06:44:32.757Z,25.00
2022-12-13T06:47:11.791Z,26.20
2022-12-13T06:49:41.589Z,24.87
2022-12-13T06:52:11.728Z,28.02
2022-12-13T06:54:40.186Z,27.63
2022-12-13T06:57:08.660Z,28.05
2022-12-13T06:59:38.324Z,24.15
2022-12-13T07:02:07.073Z,28.50
2022-12-13T07:04:54.926Z,29.00
2022-12-13T07:07:23.776Z,27.67
2022-12-13T07:09:52.272Z,25.92
2022-12-13T07:12:21.040Z,30.52
2022-12-13T07:14:50.791Z,28.20
2022-12-13T07:17:33.943Z,24.80
2022-12-13T07:20:07.991Z,23.00
2022-12-13T07:22:42.996Z,27.88
2022-12-13T07:25:27.150Z,28.47
2022-12-13T07:28:01.243Z,32.90
2022-12-13T07:30:33.398Z,28.88
2022-12-13T07:33:02.754Z,33.13
2022-12-13T07:35:31.141Z,27.42
2022-12-13T07:38:06.968Z,39.38
2022-12-13T07:40:35.413Z,38.53
2022-12-13T07:43:03.794Z,30.92
2022-12-13T07:45:33.883Z,33.72
2022-12-13T07:48:05.815Z,26.35
2022-12-13T07:50:37.165Z,30.55
2022-12-13T07:53:07.212Z,29.50
2022-12-13T07:55:36.676Z,34.40
2022-12-13T07:58:09.798Z,39.22
2022-12-13T08:00:46.038Z,30.02
2022-12-13T08:03:25.517Z,40.23
2022-12-13T08:06:00.898Z,39.38
2022-12-13T08:08:31.356Z,34.80
2022-12-13T08:11:03.943Z,32.90
2022-12-13T08:13:32.258Z,34.95
2022-12-13T08:16:02.798Z,29.88
2022-12-13T08:18:32.693Z,32.70
2022-12-13T08:21:01.340Z,38.70
2022-12-13T08:23:30.961Z,36.67
2022-12-13T08:25:59.733Z,83.57
2022-12-13T08:28:28.405Z,73.20
2022-12-13T08:30:57.454Z,100.82
2022-12-13T08:33:27.124Z,62.85
2022-12-13T08:35:55.248Z,38.90
2022-12-13T08:38:23.874Z,35.72
2022-12-13T08:40:52.429Z,41.42
2022-12-13T08:43:24.841Z,40.38
2022-12-13T08:45:53.551Z,38.83
2022-12-13T08:48:31.565Z,35.47
2022-12-13T08:51:02.784Z,39.10
2022-12-13T08:53:35.222Z,35.33
2022-12-13T08:56:12.480Z,29.17
2022-12-13T08:58:41.222Z,34.60
2022-12-13T09:01:10.724Z,32.83
2022-12-13T09:03:40.419Z,70.07
2022-12-13T09:06:10.487Z,50.50
2022-12-13T09:08:39.158Z,45.75
2022-12-13T09:11:11.161Z,42.70
2022-12-13T09:13:51.269Z,41.27
2022-12-13T09:16:24.517Z,39.05
2022-12-13T09:18:56.086Z,31.48
2022-12-13T09:21:30.989Z,27.63
2022-12-13T09:24:01.804Z,31.50
2022-12-13T09:26:37.536Z,36.00
2022-12-13T09:29:10.898Z,34.13
2022-12-13T09:31:40.514Z,42.30
2022-12-13T09:34:10.783Z,35.63
2022-12-13T09:36:39.134Z,29.27
2022-12-13T09:39:07.512Z,32.97
2022-12-13T09:41:40.558Z,28.27
2022-12-13T09:44:32.925Z,26.90
2022-12-13T09:47:14.038Z,26.65
2022-12-13T09:49:52.295Z,29.98
2022-12-13T09:52:24.687Z,27.80
2022-12-13T09:54:55.524Z,29.05
2022-12-13T09:57:32.947Z,39.90
2022-12-13T10:00:04.626Z,36.95
2022-12-13T10:02:44.304Z,29.50
2022-12-13T10:05:37.221Z,31.25
2022-12-13T10:08:10.052Z,29.40
2022-12-13T10:10:38.694Z,32.60
2022-12-13T10:13:16.177Z,30.95
2022-12-13T10:15:49.930Z,29.33
2022-12-13T10:18:26.225Z,26.25
2022-12-13T10:20:57.024Z,27.40
2022-12-13T10:23:53.122Z,22.92
2022-12-13T10:26:23.802Z,46.40
2022-12-13T10:29:03.241Z,29.80
2022-12-13T10:31:38.712Z,24.55
2022-12-13T10:34:07.087Z,37.27
2022-12-13T10:36:38.480Z,34.97
2022-12-13T10:39:06.839Z,32.03
2022-12-13T10:41:37.338Z,33.67
2022-12-13T10:44:17.336Z,32.42
2022-12-13T10:46:51.508Z,44.83
2022-12-13T10:49:23.178Z,73.70
2022-12-13T10:51:54.517Z,80.93
2022-12-13T10:54:28.735Z,56.70
2022-12-13T10:57:11.848Z,25.92
2022-12-13T10:59:40.983Z,29.23
2022-12-13T11:02:31.409Z,24.02
2022-12-13T11:05:02.113Z,27.95
2022-12-13T11:07:34.655Z,30.38
2022-12-13T11:10:27.065Z,30.33
2022-12-13T11:13:03.712Z,30.13
2022-12-13T11:15:35.110Z,23.33
2022-12-13T11:18:05.728Z,26.95
2022-12-13T11:20:37.021Z,25.27
2022-12-13T11:23:08.699Z,22.77
2022-12-13T11:25:41.844Z,22.85
2022-12-13T11:28:37.671Z,21.27
2022-12-13T11:31:16.573Z,21.83
2022-12-13T11:33:56.799Z,23.10
2022-12-13T11:36:33.752Z,21.67
2022-12-13T11:39:16.843Z,23.05
2022-12-13T11:41:55.296Z,30.30
2022-12-13T11:44:36.607Z,31.40
2022-12-13T11:47:08.255Z,40.95
2022-12-13T11:49:40.893Z,22.40
2022-12-13T11:52:17.643Z,22.92
2022-12-13T11:54:53.839Z,25.73
2022-12-13T11:57:34.358Z,23.15
2022-12-13T12:00:13.247Z,19.60
2022-12-13T12:02:49.951Z,20.77
2022-12-13T12:05:28.328Z,22.23
2022-12-13T12:11:02.084Z,29.25
2022-12-13T12:13:50.972Z,25.10
2022-12-13T12:16:30.061Z,20.53
2022-12-13T12:19:01.899Z,19.40
2022-12-13T12:24:35.993Z,22.90
2022-12-13T12:27:23.852Z,23.83
2022-12-13T12:30:23.516Z,18.70
2022-12-13T12:33:01.912Z,19.45
2022-12-13T12:36:08.039Z,17.95
2022-12-13T12:39:02.536Z,19.52
2022-12-13T12:41:45.120Z,24.42
2022-12-13T12:44:31.140Z,20.63
2022-12-13T12:50:23.849Z,22.70
2022-12-13T12:53:01.110Z,20.27
2022-12-13T12:55:49.271Z,17.17
2022-12-13T12:58:28.024Z,21.35
2022-12-13T13:01:12.993Z,18.40
2022-12-13T13:03:44.079Z,17.30
2022-12-13T13:06:18.554Z,16.08
2022-12-13T13:08:55.638Z,21.35
2022-12-13T13:11:26.268Z,46.95
2022-12-13T13:14:08.240Z,21.83
2022-12-13T13:16:40.337Z,17.23
2022-12-13T13:19:42.654Z,19.27
2022-12-13T13:22:31.450Z,18.02
2022-12-13T13:25:23.190Z,16.25
2022-12-13T13:27:52.780Z,16.43
2022-12-13T13:30:23.045Z,19.42
2022-12-13T13:32:54.195Z,17.23
2022-12-13T13:35:53.745Z,18.83
2022-12-13T13:39:01.537Z,19.35
2022-12-13T13:41:56.367Z,23.55
2022-12-13T13:44:56.629Z,17.63
2022-12-13T13:47:45.473Z,17.55
2022-12-13T13:51:04.797Z,19.30
2022-12-13T13:54:03.869Z,17.25
2022-12-13T13:57:07.985Z,20.15
2022-12-13T14:00:21.870Z,19.40
2022-12-13T14:03:44.376Z,16.63
2022-12-13T14:06:44.350Z,19.02
2022-12-13T14:09:44.506Z,15.98
2022-12-13T14:12:46.149Z,19.92
2022-12-13T14:16:00.385Z,20.40
2022-12-13T14:19:16.758Z,16.92
2022-12-13T14:22:14.527Z,18.27
2022-12-13T14:24:55.059Z,17.80
2022-12-13T14:27:42.309Z,16.95
2022-12-13T14:30:27.116Z,19.83
2022-12-13T14:32:57.450Z,16.40
2022-12-13T14:35:28.016Z,17.60
2022-12-13T14:38:02.166Z,17.93
2022-12-13T14:40:34.781Z,18.42
2022-12-13T14:43:03.753Z,17.88
2022-12-13T14:45:34.451Z,17.23
2022-12-13T14:48:06.522Z,21.00
2022-12-13T14:50:36.583Z,17.92
2022-12-13T14:53:06.860Z,19.93
2022-12-13T14:55:37.878Z,23.05
2022-12-13T14:58:17.747Z,19.30
2022-12-13T15:00:46.836Z,19.57
2022-12-13T15:03:24.185Z,20.60
2022-12-13T15:05:56.018Z,20.40
2022-12-13T15:08:25.051Z,23.40
2022-12-13T15:10:57.231Z,24.23
2022-12-13T15:13:34.309Z,26.30
2022-12-13T15:16:10.808Z,29.97
2022-12-13T15:18:42.450Z,24.92
2022-12-13T15:21:23.626Z,22.60
2022-12-13T15:24:00.350Z,54.17
2022-12-13T15:26:36.783Z,41.88
2022-12-13T15:29:09.642Z,23.83
2022-12-13T15:31:40.392Z,27.00
2022-12-13T15:34:36.277Z,50.75
2022-12-13T15:37:07.777Z,61.97
2022-12-13T15:40:00.443Z,58.42
2022-12-13T15:42:33.313Z,46.42
2022-12-13T15:45:03.856Z,46.05
2022-12-13T15:47:33.215Z,34.17
2022-12-13T15:50:03.645Z,37.70
2022-12-13T15:52:35.550Z,27.60
2022-12-13T15:55:19.966Z,30.98
2022-12-13T15:57:59.356Z,26.55
2022-12-13T16:00:31.737Z,28.73
2022-12-13T16:03:08.824Z,30.23
2022-12-13T16:05:41.682Z,38.97
2022-12-13T16:08:26.033Z,42.80
2022-12-13T16:10:54.948Z,52.10
2022-12-13T16:13:27.881Z,58.80
2022-12-13T16:15:59.741Z,45.05
2022-12-13T16:18:45.870Z,45.90
2022-12-13T16:21:15.286Z,34.35
2022-12-13T16:23:48.818Z,37.38
2022-12-13T16:26:23.544Z,38.90
2022-12-13T16:28:53.290Z,26.23
2022-12-13T16:31:23.872Z,48.60
2022-12-13T16:33:52.694Z,65.80
2022-12-13T16:36:21.339Z,64.20
2022-12-13T16:38:51.380Z,33.85
2022-12-13T16:41:21.991Z,37.20
2022-12-13T16:43:56.220Z,28.15
2022-12-13T16:47:16.657Z,29.52
2022-12-13T16:49:21.308Z,31.92
2022-12-13T16:51:50.316Z,28.80
2022-12-13T16:54:19.409Z,26.63
2022-12-13T16:56:47.749Z,24.55
2022-12-13T16:59:19.006Z,22.00
2022-12-13T17:01:47.753Z,24.35
2022-12-13T17:04:21.118Z,22.70
2022-12-13T17:06:51.011Z,19.40
2022-12-13T17:09:24.438Z,22.95
2022-12-13T17:11:52.702Z,22.40
2022-12-13T17:14:22.337Z,25.60
2022-12-13T17:16:51.315Z,25.80
2022-12-13T17:19:19.754Z,23.13
2022-12-13T17:21:49.374Z,23.60
2022-12-13T17:24:17.598Z,20.30
2022-12-13T17:26:54.727Z,23.15
2022-12-13T17:29:25.770Z,20.88
2022-12-13T17:31:54.518Z,22.08
2022-12-13T17:34:22.908Z,21.92
2022-12-13T17:36:51.158Z,21.55
2022-12-13T17:39:19.633Z,22.10
2022-12-13T17:41:55.186Z,26.00
2022-12-13T17:44:26.006Z,24.52
2022-12-13T17:46:55.709Z,24.35
2022-12-13T17:49:24.729Z,26.05
2022-12-13T17:51:54.249Z,23.73
2022-12-13T17:54:23.528Z,31.33
2022-12-13T17:56:52.539Z,22.85
2022-12-13T17:59:21.414Z,28.98
2022-12-13T18:01:51.678Z,27.73
2022-12-13T18:04:21.026Z,33.15
2022-12-13T18:06:49.392Z,33.83
2022-12-13T18:09:17.737Z,27.20
2022-12-13T18:11:45.983Z,25.60
2022-12-13T18:14:14.314Z,26.25
2022-12-13T18:16:43.730Z,22.87
2022-12-13T18:19:14.931Z,23.60
2022-12-13T18:21:44.314Z,22.77
2022-12-13T18:24:13.188Z,24.33
2022-12-13T18:26:41.508Z,24.73
2022-12-13T18:29:10.194Z,25.85
2022-12-13T18:31:38.524Z,23.45
2022-12-13T18:34:07.593Z,26.23
2022-12-13T18:36:37.586Z,25.88
2022-12-13T18:39:06.469Z,30.42
2022-12-13T18:41:35.257Z,28.00
2022-12-13T18:44:05.441Z,32.83
2022-12-13T18:46:36.343Z,31.40
2022-12-13T18:49:05.227Z,29.10
2022-12-13T18:51:33.973Z,24.00
2022-12-13T18:54:05.052Z,27.00
2022-12-13T18:56:33.366Z,28.98
2022-12-13T18:59:01.691Z,28.05
2022-12-13T19:01:30.634Z,28.15
2022-12-13T19:03:59.147Z,31.63
2022-12-13T19:06:28.993Z,30.33
2022-12-13T19:08:58.538Z,27.33
2022-12-13T19:11:29.903Z,27.48
2022-12-13T19:13:58.637Z,29.42
2022-12-13T19:16:27.298Z,28.33
2022-12-13T19:18:55.890Z,41.92
2022-12-13T19:21:24.522Z,37.20
2022-12-13T19:23:57.724Z,43.22
2022-12-13T19:26:28.780Z,32.15
2022-12-13T19:28:58.746Z,38.28
2022-12-13T19:31:31.570Z,48.75
2022-12-13T19:34:04.762Z,78.97
2022-12-13T19:36:33.914Z,47.55
2022-12-13T19:39:02.227Z,56.70
2022-12-13T19:41:33.504Z,35.85
2022-12-13T19:44:04.601Z,38.67
2022-12-13T19:46:33.262Z,33.20
2022-12-13T19:49:02.020Z,34.92
2022-12-13T19:51:34.437Z,28.27
2022-12-13T19:54:06.076Z,29.45
2022-12-13T19:56:35.744Z,32.70
2022-12-13T19:59:04.022Z,47.28
2022-12-13T20:01:32.338Z,31.15
2022-12-13T20:04:01.716Z,31.75
2022-12-13T20:06:30.749Z,33.53
2022-12-13T20:08:58.985Z,27.48
2022-12-13T20:11:27.184Z,28.40
2022-12-13T20:13:57.211Z,36.20
2022-12-13T20:16:27.034Z,29.90
2022-12-13T20:18:57.067Z,34.03
2022-12-13T20:21:26.029Z,28.70
2022-12-13T20:23:54.818Z,28.13
2022-12-13T20:26:25.041Z,28.90
2022-12-13T20:28:53.486Z,26.88
2022-12-13T20:31:25.421Z,27.53
2022-12-13T20:33:56.886Z,27.40
2022-12-13T20:36:27.563Z,33.55
2022-12-13T20:38:57.601Z,31.47
2022-12-13T20:41:27.169Z,28.58
2022-12-13T20:43:57.500Z,30.05
2022-12-13T20:46:28.368Z,28.77
2022-12-13T20:48:57.978Z,43.38
2022-12-13T20:51:29.421Z,37.53
2022-12-13T20:53:58.052Z,37.13
2022-12-13T20:56:28.633Z,33.00
2022-12-13T20:58:58.260Z,26.65
2022-12-13T21:01:30.446Z,29.15
2022-12-13T21:04:01.169Z,23.23
2022-12-13T21:06:30.577Z,26.20
2022-12-13T21:09:02.527Z,23.67
2022-12-13T21:11:32.949Z,25.87
2022-12-13T21:14:08.228Z,18.63
2022-12-13T21:16:42.389Z,26.25
2022-12-13T21:19:14.228Z,25.00
2022-12-13T21:21:42.629Z,24.95
2022-12-13T21:24:13.695Z,22.33
2022-12-13T21:26:42.039Z,20.95
2022-12-13T21:29:12.608Z,25.50
2022-12-13T21:31:48.511Z,16.58
2022-12-13T21:34:17.863Z,20.20
2022-12-13T21:36:48.268Z,20.88
2022-12-13T21:39:19.218Z,22.95
2022-12-13T21:41:47.441Z,22.02
2022-12-13T21:44:16.683Z,18.35
2022-12-13T21:49:34.969Z,16.77
2022-12-13T21:52:03.111Z,22.45
2022-12-13T21:54:31.247Z,27.00
2022-12-13T21:57:16.708Z,24.97
2022-12-13T21:59:45.056Z,19.40
2022-12-13T22:02:16.806Z,23.55
2022-12-13T22:04:46.484Z,21.65
2022-12-13T22:07:16.490Z,20.23
2022-12-13T22:09:45.942Z,23.17
2022-12-13T22:12:21.196Z,18.83
2022-12-13T22:14:50.282Z,18.77
2022-12-13T22:17:31.041Z,13.35
2022-12-13T22:20:02.098Z,17.67
2022-12-13T22:22:30.519Z,16.80
2022-12-13T22:24:58.907Z,17.13
2022-12-13T22:27:28.152Z,18.33
2022-12-13T22:29:58.042Z,16.10
2022-12-13T22:32:29.262Z,16.55
2022-12-13T22:34:57.729Z,17.90
2022-12-13T22:37:26.457Z,17.50
2022-12-13T22:39:56.433Z,15.65
2022-12-13T22:42:24.683Z,17.52
2022-12-13T22:44:52.885Z,16.27
2022-12-13T22:47:21.199Z,18.60
2022-12-13T22:49:50.804Z,19.25
2022-12-13T22:52:19.191Z,15.00
2022-12-13T22:54:47.594Z,23.37
2022-12-13T22:57:15.945Z,19.77
2022-12-13T22:59:44.800Z,20.30
2022-12-13T23:02:13.192Z,18.10
2022-12-13T23:04:41.461Z,18.10
2022-12-13T23:07:10.964Z,19.88
2022-12-13T23:09:39.196Z,17.45
2022-12-13T23:12:25.083Z,21.60
2022-12-13T23:14:53.340Z,18.50
2022-12-13T23:17:21.553Z,20.75
2022-12-13T23:19:53.313Z,17.48
2022-12-13T23:22:25.064Z,20.10
2022-12-13T23:24:54.140Z,20.05
2022-12-13T23:27:23.844Z,17.27
2022-12-13T23:29:52.082Z,18.60
2022-12-13T23:32:20.451Z,15.25
2022-12-13T23:34:48.647Z,14.07
2022-12-13T23:37:16.933Z,17.27
2022-12-13T23:39:46.510Z,16.73
2022-12-13T23:42:14.746Z,24.30
2022-12-13T23:44:43.402Z,17.00
2022-12-13T23:47:11.646Z,21.73
2022-12-13T23:49:39.809Z,19.95
2022-12-13T23:52:08.002Z,19.70
2022-12-13T23:54:36.281Z,20.38
2022-12-13T23:57:06.220Z,24.33
2022-12-13T23:59:34.539Z,21.58
